sensor_id;sensor_type;location;lat;lon;timestamp;temperature;humidity
11559;DHT22;5835;42.930;25.178;2022-07-17T00:01:48;19.80;99.90
11559;DHT22;5835;42.930;25.178;2022-07-17T00:04:16;19.70;99.90
11559;DHT22;5835;42.930;25.178;2022-07-17T00:06:43;19.70;99.90
11559;DHT22;5835;42.930;25.178;2022-07-17T00:09:12;19.70;99.90
11559;DHT22;5835;42.930;25.178;2022-07-17T00:11:40;19.70;99.90
11559;DHT22;5835;42.930;25.178;2022-07-17T00:14:07;19.60;99.90
11559;DHT22;5835;42.930;25.178;2022-07-17T00:16:35;19.60;99.90
11559;DHT22;5835;42.930;25.178;2022-07-17T00:19:03;19.40;99.90
11559;DHT22;5835;42.930;25.178;2022-07-17T00:21:31;19.30;99.90
11559;DHT22;5835;42.930;25.178;2022-07-17T00:23:58;19.40;99.90
11559;DHT22;5835;42.930;25.178;2022-07-17T00:26:28;19.30;99.90
11559;DHT22;5835;42.930;25.178;2022-07-17T00:28:55;19.20;99.90
11559;DHT22;5835;42.930;25.178;2022-07-17T00:31:23;19.20;99.90
11559;DHT22;5835;42.930;25.178;2022-07-17T00:33:51;19.10;99.90
11559;DHT22;5835;42.930;25.178;2022-07-17T00:36:18;18.90;99.90
11559;DHT22;5835;42.930;25.178;2022-07-17T00:38:46;18.80;99.90
11559;DHT22;5835;42.930;25.178;2022-07-17T00:41:14;18.70;99.90
11559;DHT22;5835;42.930;25.178;2022-07-17T00:43:43;18.80;99.90
11559;DHT22;5835;42.930;25.178;2022-07-17T00:46:11;18.90;99.90
11559;DHT22;5835;42.930;25.178;2022-07-17T00:48:39;19.00;99.90
11559;DHT22;5835;42.930;25.178;2022-07-17T00:51:07;19.00;99.90
11559;DHT22;5835;42.930;25.178;2022-07-17T00:53:36;18.90;99.90
11559;DHT22;5835;42.930;25.178;2022-07-17T00:56:05;18.60;99.90
11559;DHT22;5835;42.930;25.178;2022-07-17T00:58:35;18.40;99.90
11559;DHT22;5835;42.930;25.178;2022-07-17T01:01:05;18.30;99.90
11559;DHT22;5835;42.930;25.178;2022-07-17T01:03:33;18.20;99.90
11559;DHT22;5835;42.930;25.178;2022-07-17T01:06:01;18.30;99.90
11559;DHT22;5835;42.930;25.178;2022-07-17T01:08:29;18.50;99.90
11559;DHT22;5835;42.930;25.178;2022-07-17T01:10:56;18.70;99.90
11559;DHT22;5835;42.930;25.178;2022-07-17T01:13:24;18.80;99.90
11559;DHT22;5835;42.930;25.178;2022-07-17T01:15:53;18.80;99.90
11559;DHT22;5835;42.930;25.178;2022-07-17T01:18:23;18.80;99.90
11559;DHT22;5835;42.930;25.178;2022-07-17T01:20:51;18.90;99.90
11559;DHT22;5835;42.930;25.178;2022-07-17T01:23:21;19.00;99.90
11559;DHT22;5835;42.930;25.178;2022-07-17T01:25:48;18.80;99.90
11559;DHT22;5835;42.930;25.178;2022-07-17T01:28:16;18.70;99.90
11559;DHT22;5835;42.930;25.178;2022-07-17T01:30:48;18.70;99.90
11559;DHT22;5835;42.930;25.178;2022-07-17T01:33:17;18.60;99.90
11559;DHT22;5835;42.930;25.178;2022-07-17T01:35:45;18.60;99.90
11559;DHT22;5835;42.930;25.178;2022-07-17T01:38:12;18.60;99.90
11559;DHT22;5835;42.930;25.178;2022-07-17T01:40:41;18.70;99.90
11559;DHT22;5835;42.930;25.178;2022-07-17T01:43:09;18.70;99.90
11559;DHT22;5835;42.930;25.178;2022-07-17T01:45:37;18.70;99.90
11559;DHT22;5835;42.930;25.178;2022-07-17T01:48:05;18.70;99.90
11559;DHT22;5835;42.930;25.178;2022-07-17T01:50:33;18.40;99.90
11559;DHT22;5835;42.930;25.178;2022-07-17T01:53:01;18.20;99.90
11559;DHT22;5835;42.930;25.178;2022-07-17T01:55:29;18.50;99.90
11559;DHT22;5835;42.930;25.178;2022-07-17T01:57:58;18.30;99.90
11559;DHT22;5835;42.930;25.178;2022-07-17T02:00:25;18.50;99.90
11559;DHT22;5835;42.930;25.178;2022-07-17T02:02:53;18.20;99.90
11559;DHT22;5835;42.930;25.178;2022-07-17T02:05:20;18.10;99.90
11559;DHT22;5835;42.930;25.178;2022-07-17T02:07:48;18.00;99.90
11559;DHT22;5835;42.930;25.178;2022-07-17T02:10:16;18.20;99.90
11559;DHT22;5835;42.930;25.178;2022-07-17T02:12:44;18.30;99.90
11559;DHT22;5835;42.930;25.178;2022-07-17T02:15:13;18.40;99.90
11559;DHT22;5835;42.930;25.178;2022-07-17T02:17:42;18.50;99.90
11559;DHT22;5835;42.930;25.178;2022-07-17T02:20:10;18.60;99.90
11559;DHT22;5835;42.930;25.178;2022-07-17T02:22:38;18.50;99.90
11559;DHT22;5835;42.930;25.178;2022-07-17T02:25:07;18.50;99.90
11559;DHT22;5835;42.930;25.178;2022-07-17T02:27:35;18.00;99.90
11559;DHT22;5835;42.930;25.178;2022-07-17T02:30:04;17.90;99.90
11559;DHT22;5835;42.930;25.178;2022-07-17T02:32:34;18.10;99.90
11559;DHT22;5835;42.930;25.178;2022-07-17T02:35:02;18.00;99.90
11559;DHT22;5835;42.930;25.178;2022-07-17T02:37:30;17.90;99.90
11559;DHT22;5835;42.930;25.178;2022-07-17T02:39:58;17.90;99.90
11559;DHT22;5835;42.930;25.178;2022-07-17T02:42:28;17.90;99.90
11559;DHT22;5835;42.930;25.178;2022-07-17T02:44:57;17.90;99.90
11559;DHT22;5835;42.930;25.178;2022-07-17T02:47:27;17.90;99.90
11559;DHT22;5835;42.930;25.178;2022-07-17T02:49:57;18.00;99.90
11559;DHT22;5835;42.930;25.178;2022-07-17T02:52:27;18.10;99.90
11559;DHT22;5835;42.930;25.178;2022-07-17T02:54:54;17.90;99.90
11559;DHT22;5835;42.930;25.178;2022-07-17T02:57:22;17.90;99.90
11559;DHT22;5835;42.930;25.178;2022-07-17T02:59:50;18.00;99.90
11559;DHT22;5835;42.930;25.178;2022-07-17T03:02:18;17.90;99.90
11559;DHT22;5835;42.930;25.178;2022-07-17T03:04:46;17.90;99.90
11559;DHT22;5835;42.930;25.178;2022-07-17T03:07:15;17.90;99.90
11559;DHT22;5835;42.930;25.178;2022-07-17T03:09:42;17.80;99.90
11559;DHT22;5835;42.930;25.178;2022-07-17T03:12:10;17.70;99.90
11559;DHT22;5835;42.930;25.178;2022-07-17T03:14:38;17.70;99.90
11559;DHT22;5835;42.930;25.178;2022-07-17T03:17:05;18.10;99.90
11559;DHT22;5835;42.930;25.178;2022-07-17T03:19:33;17.40;99.90
11559;DHT22;5835;42.930;25.178;2022-07-17T03:22:01;17.10;99.90
11559;DHT22;5835;42.930;25.178;2022-07-17T03:24:31;17.40;99.90
11559;DHT22;5835;42.930;25.178;2022-07-17T03:26:59;17.40;99.90
11559;DHT22;5835;42.930;25.178;2022-07-17T03:29:27;17.30;99.90
11559;DHT22;5835;42.930;25.178;2022-07-17T03:31:55;17.10;99.90
11559;DHT22;5835;42.930;25.178;2022-07-17T03:34:23;17.20;99.90
11559;DHT22;5835;42.930;25.178;2022-07-17T03:36:50;17.20;99.90
11559;DHT22;5835;42.930;25.178;2022-07-17T03:39:18;17.10;99.90
11559;DHT22;5835;42.930;25.178;2022-07-17T03:41:47;17.10;99.90
11559;DHT22;5835;42.930;25.178;2022-07-17T03:44:15;16.90;99.90
11559;DHT22;5835;42.930;25.178;2022-07-17T03:46:43;16.90;99.90
11559;DHT22;5835;42.930;25.178;2022-07-17T03:49:10;17.10;99.90
11559;DHT22;5835;42.930;25.178;2022-07-17T03:51:38;17.40;99.90
11559;DHT22;5835;42.930;25.178;2022-07-17T03:54:06;17.70;99.90
11559;DHT22;5835;42.930;25.178;2022-07-17T03:56:34;18.50;99.90
11559;DHT22;5835;42.930;25.178;2022-07-17T03:59:03;18.80;99.90
11559;DHT22;5835;42.930;25.178;2022-07-17T04:01:31;19.00;99.90
11559;DHT22;5835;42.930;25.178;2022-07-17T04:03:59;19.00;99.90
11559;DHT22;5835;42.930;25.178;2022-07-17T04:06:27;19.00;99.90
11559;DHT22;5835;42.930;25.178;2022-07-17T04:08:54;19.10;99.90
11559;DHT22;5835;42.930;25.178;2022-07-17T04:11:22;19.20;99.90
11559;DHT22;5835;42.930;25.178;2022-07-17T04:13:50;19.40;99.90
11559;DHT22;5835;42.930;25.178;2022-07-17T04:16:19;19.50;99.90
11559;DHT22;5835;42.930;25.178;2022-07-17T04:18:47;19.80;99.90
11559;DHT22;5835;42.930;25.178;2022-07-17T04:21:15;20.00;99.90
11559;DHT22;5835;42.930;25.178;2022-07-17T04:23:42;20.10;99.90
11559;DHT22;5835;42.930;25.178;2022-07-17T04:26:10;19.60;99.90
11559;DHT22;5835;42.930;25.178;2022-07-17T04:28:41;19.50;99.90
11559;DHT22;5835;42.930;25.178;2022-07-17T04:31:09;19.80;99.90
11559;DHT22;5835;42.930;25.178;2022-07-17T04:33:38;20.00;99.90
11559;DHT22;5835;42.930;25.178;2022-07-17T04:36:06;20.10;99.90
11559;DHT22;5835;42.930;25.178;2022-07-17T04:38:33;20.10;99.90
11559;DHT22;5835;42.930;25.178;2022-07-17T04:41:03;20.10;99.90
11559;DHT22;5835;42.930;25.178;2022-07-17T04:43:31;20.20;99.90
11559;DHT22;5835;42.930;25.178;2022-07-17T04:45:58;20.20;99.90
11559;DHT22;5835;42.930;25.178;2022-07-17T04:48:26;20.00;99.90
11559;DHT22;5835;42.930;25.178;2022-07-17T04:50:55;20.00;99.90
11559;DHT22;5835;42.930;25.178;2022-07-17T04:53:23;20.20;99.90
11559;DHT22;5835;42.930;25.178;2022-07-17T04:55:51;20.20;99.90
11559;DHT22;5835;42.930;25.178;2022-07-17T04:58:18;20.40;99.90
11559;DHT22;5835;42.930;25.178;2022-07-17T05:00:46;20.50;99.90
11559;DHT22;5835;42.930;25.178;2022-07-17T05:03:14;20.70;99.90
11559;DHT22;5835;42.930;25.178;2022-07-17T05:05:41;20.80;99.90
11559;DHT22;5835;42.930;25.178;2022-07-17T05:08:10;20.90;99.90
11559;DHT22;5835;42.930;25.178;2022-07-17T05:10:38;21.00;99.90
11559;DHT22;5835;42.930;25.178;2022-07-17T05:13:05;21.10;99.90
11559;DHT22;5835;42.930;25.178;2022-07-17T05:15:33;21.20;99.90
11559;DHT22;5835;42.930;25.178;2022-07-17T05:18:00;21.40;99.90
11559;DHT22;5835;42.930;25.178;2022-07-17T05:20:28;21.60;99.90
11559;DHT22;5835;42.930;25.178;2022-07-17T05:22:56;22.00;99.90
11559;DHT22;5835;42.930;25.178;2022-07-17T05:25:25;22.00;99.90
11559;DHT22;5835;42.930;25.178;2022-07-17T05:27:53;22.20;99.90
11559;DHT22;5835;42.930;25.178;2022-07-17T05:30:21;22.30;99.90
11559;DHT22;5835;42.930;25.178;2022-07-17T05:32:49;22.50;99.90
11559;DHT22;5835;42.930;25.178;2022-07-17T05:35:16;22.70;99.90
11559;DHT22;5835;42.930;25.178;2022-07-17T05:37:44;22.80;99.90
11559;DHT22;5835;42.930;25.178;2022-07-17T05:40:12;23.00;99.90
11559;DHT22;5835;42.930;25.178;2022-07-17T05:42:41;23.00;99.90
11559;DHT22;5835;42.930;25.178;2022-07-17T05:45:09;23.20;99.90
11559;DHT22;5835;42.930;25.178;2022-07-17T05:47:36;23.10;99.90
11559;DHT22;5835;42.930;25.178;2022-07-17T05:50:05;23.30;99.90
11559;DHT22;5835;42.930;25.178;2022-07-17T05:52:33;23.30;99.90
11559;DHT22;5835;42.930;25.178;2022-07-17T05:55:00;23.40;99.90
11559;DHT22;5835;42.930;25.178;2022-07-17T05:57:28;23.40;99.90
11559;DHT22;5835;42.930;25.178;2022-07-17T05:59:58;23.70;99.90
11559;DHT22;5835;42.930;25.178;2022-07-17T06:02:25;23.60;99.90
11559;DHT22;5835;42.930;25.178;2022-07-17T06:04:56;23.80;99.90
11559;DHT22;5835;42.930;25.178;2022-07-17T06:07:23;23.90;99.90
11559;DHT22;5835;42.930;25.178;2022-07-17T06:09:51;23.60;99.90
11559;DHT22;5835;42.930;25.178;2022-07-17T06:12:19;23.80;99.90
11559;DHT22;5835;42.930;25.178;2022-07-17T06:14:47;23.90;99.90
11559;DHT22;5835;42.930;25.178;2022-07-17T06:17:16;24.10;99.90
11559;DHT22;5835;42.930;25.178;2022-07-17T06:19:44;24.20;99.90
11559;DHT22;5835;42.930;25.178;2022-07-17T06:22:11;24.30;98.10
11559;DHT22;5835;42.930;25.178;2022-07-17T06:24:40;24.30;98.00
11559;DHT22;5835;42.930;25.178;2022-07-17T06:27:08;24.40;97.50
11559;DHT22;5835;42.930;25.178;2022-07-17T06:29:36;24.50;97.00
11559;DHT22;5835;42.930;25.178;2022-07-17T06:32:04;24.40;94.40
11559;DHT22;5835;42.930;25.178;2022-07-17T06:34:33;24.50;94.70
11559;DHT22;5835;42.930;25.178;2022-07-17T06:37:00;24.80;93.90
11559;DHT22;5835;42.930;25.178;2022-07-17T06:39:28;24.70;92.50
11559;DHT22;5835;42.930;25.178;2022-07-17T06:41:56;24.60;92.10
11559;DHT22;5835;42.930;25.178;2022-07-17T06:44:23;24.60;90.80
11559;DHT22;5835;42.930;25.178;2022-07-17T06:46:51;24.60;90.70
11559;DHT22;5835;42.930;25.178;2022-07-17T06:49:19;24.70;90.20
11559;DHT22;5835;42.930;25.178;2022-07-17T06:51:48;24.70;89.80
11559;DHT22;5835;42.930;25.178;2022-07-17T06:54:16;24.90;88.10
11559;DHT22;5835;42.930;25.178;2022-07-17T06:56:44;24.90;87.50
11559;DHT22;5835;42.930;25.178;2022-07-17T06:59:12;25.10;88.00
11559;DHT22;5835;42.930;25.178;2022-07-17T07:01:39;25.40;87.30
11559;DHT22;5835;42.930;25.178;2022-07-17T07:04:06;25.30;85.00
11559;DHT22;5835;42.930;25.178;2022-07-17T07:06:34;25.40;82.90
11559;DHT22;5835;42.930;25.178;2022-07-17T07:09:03;25.30;82.10
11559;DHT22;5835;42.930;25.178;2022-07-17T07:11:31;25.50;81.50
11559;DHT22;5835;42.930;25.178;2022-07-17T07:13:59;25.50;81.60
11559;DHT22;5835;42.930;25.178;2022-07-17T07:16:27;25.90;83.50
11559;DHT22;5835;42.930;25.178;2022-07-17T07:18:54;26.00;81.50
11559;DHT22;5835;42.930;25.178;2022-07-17T07:21:22;26.20;83.40
11559;DHT22;5835;42.930;25.178;2022-07-17T07:23:51;26.00;79.40
11559;DHT22;5835;42.930;25.178;2022-07-17T07:26:21;26.10;81.10
11559;DHT22;5835;42.930;25.178;2022-07-17T07:28:49;25.90;79.50
11559;DHT22;5835;42.930;25.178;2022-07-17T07:31:17;26.20;80.50
11559;DHT22;5835;42.930;25.178;2022-07-17T07:33:45;26.00;78.70
11559;DHT22;5835;42.930;25.178;2022-07-17T07:36:13;26.20;78.60
11559;DHT22;5835;42.930;25.178;2022-07-17T07:38:40;26.20;77.70
11559;DHT22;5835;42.930;25.178;2022-07-17T07:41:09;26.10;76.90
11559;DHT22;5835;42.930;25.178;2022-07-17T07:43:38;26.60;77.80
11559;DHT22;5835;42.930;25.178;2022-07-17T07:46:05;26.90;78.30
11559;DHT22;5835;42.930;25.178;2022-07-17T07:48:33;26.70;76.00
11559;DHT22;5835;42.930;25.178;2022-07-17T07:51:01;26.70;73.80
11559;DHT22;5835;42.930;25.178;2022-07-17T07:53:28;26.90;74.40
11559;DHT22;5835;42.930;25.178;2022-07-17T07:55:56;27.10;71.90
11559;DHT22;5835;42.930;25.178;2022-07-17T07:58:24;26.80;71.50
11559;DHT22;5835;42.930;25.178;2022-07-17T08:00:54;27.10;71.50
11559;DHT22;5835;42.930;25.178;2022-07-17T08:03:21;27.10;70.20
11559;DHT22;5835;42.930;25.178;2022-07-17T08:05:49;27.30;69.60
11559;DHT22;5835;42.930;25.178;2022-07-17T08:08:16;27.40;70.10
11559;DHT22;5835;42.930;25.178;2022-07-17T08:10:44;27.10;68.60
11559;DHT22;5835;42.930;25.178;2022-07-17T08:13:12;27.20;67.30
11559;DHT22;5835;42.930;25.178;2022-07-17T08:15:39;27.40;67.30
11559;DHT22;5835;42.930;25.178;2022-07-17T08:18:08;27.60;67.30
11559;DHT22;5835;42.930;25.178;2022-07-17T08:20:36;27.70;66.50
11559;DHT22;5835;42.930;25.178;2022-07-17T08:23:03;27.80;66.00
11559;DHT22;5835;42.930;25.178;2022-07-17T08:25:32;27.40;65.20
11559;DHT22;5835;42.930;25.178;2022-07-17T08:27:59;27.30;64.30
11559;DHT22;5835;42.930;25.178;2022-07-17T08:30:27;27.70;65.60
11559;DHT22;5835;42.930;25.178;2022-07-17T08:32:57;27.50;64.60
11559;DHT22;5835;42.930;25.178;2022-07-17T08:35:26;27.50;64.80
11559;DHT22;5835;42.930;25.178;2022-07-17T08:37:54;27.40;63.90
11559;DHT22;5835;42.930;25.178;2022-07-17T08:40:23;27.50;65.20
11559;DHT22;5835;42.930;25.178;2022-07-17T08:42:52;27.50;64.70
11559;DHT22;5835;42.930;25.178;2022-07-17T08:45:20;27.20;63.20
11559;DHT22;5835;42.930;25.178;2022-07-17T08:47:50;27.60;64.10
11559;DHT22;5835;42.930;25.178;2022-07-17T08:50:22;27.60;63.60
11559;DHT22;5835;42.930;25.178;2022-07-17T08:52:52;27.60;62.30
11559;DHT22;5835;42.930;25.178;2022-07-17T08:55:20;27.70;62.80
11559;DHT22;5835;42.930;25.178;2022-07-17T08:57:49;28.00;63.00
11559;DHT22;5835;42.930;25.178;2022-07-17T09:00:20;28.10;63.30
11559;DHT22;5835;42.930;25.178;2022-07-17T09:02:56;28.40;59.80
11559;DHT22;5835;42.930;25.178;2022-07-17T09:05:25;28.40;59.80
11559;DHT22;5835;42.930;25.178;2022-07-17T09:07:55;28.30;59.00
11559;DHT22;5835;42.930;25.178;2022-07-17T09:10:34;28.50;59.40
11559;DHT22;5835;42.930;25.178;2022-07-17T09:13:12;28.30;58.00
11559;DHT22;5835;42.930;25.178;2022-07-17T09:15:41;28.40;57.80
11559;DHT22;5835;42.930;25.178;2022-07-17T09:18:09;28.00;57.50
11559;DHT22;5835;42.930;25.178;2022-07-17T09:20:43;28.30;58.20
11559;DHT22;5835;42.930;25.178;2022-07-17T09:23:13;28.90;58.30
11559;DHT22;5835;42.930;25.178;2022-07-17T09:25:42;28.30;59.00
11559;DHT22;5835;42.930;25.178;2022-07-17T09:28:12;28.70;60.40
11559;DHT22;5835;42.930;25.178;2022-07-17T09:30:41;28.30;59.30
11559;DHT22;5835;42.930;25.178;2022-07-17T09:33:13;28.50;58.70
11559;DHT22;5835;42.930;25.178;2022-07-17T09:35:45;29.10;61.10
11559;DHT22;5835;42.930;25.178;2022-07-17T09:38:25;28.40;59.60
11559;DHT22;5835;42.930;25.178;2022-07-17T09:41:02;28.40;57.70
11559;DHT22;5835;42.930;25.178;2022-07-17T09:43:43;28.40;57.50
11559;DHT22;5835;42.930;25.178;2022-07-17T09:46:19;28.90;58.20
11559;DHT22;5835;42.930;25.178;2022-07-17T09:48:49;28.80;59.00
11559;DHT22;5835;42.930;25.178;2022-07-17T09:51:20;29.40;58.60
11559;DHT22;5835;42.930;25.178;2022-07-17T09:53:50;29.70;58.60
11559;DHT22;5835;42.930;25.178;2022-07-17T09:56:21;29.20;58.00
11559;DHT22;5835;42.930;25.178;2022-07-17T09:58:50;28.60;56.30
11559;DHT22;5835;42.930;25.178;2022-07-17T10:01:19;29.50;57.20
11559;DHT22;5835;42.930;25.178;2022-07-17T10:03:48;29.40;57.10
11559;DHT22;5835;42.930;25.178;2022-07-17T10:06:17;29.30;55.10
11559;DHT22;5835;42.930;25.178;2022-07-17T10:08:45;29.80;55.30
11559;DHT22;5835;42.930;25.178;2022-07-17T10:11:15;29.60;54.50
11559;DHT22;5835;42.930;25.178;2022-07-17T10:13:46;29.30;54.90
11559;DHT22;5835;42.930;25.178;2022-07-17T10:16:22;29.50;54.40
11559;DHT22;5835;42.930;25.178;2022-07-17T10:18:50;29.60;53.90
11559;DHT22;5835;42.930;25.178;2022-07-17T10:21:21;29.70;54.50
11559;DHT22;5835;42.930;25.178;2022-07-17T10:24:06;29.80;52.30
11559;DHT22;5835;42.930;25.178;2022-07-17T10:26:39;29.60;51.40
11559;DHT22;5835;42.930;25.178;2022-07-17T10:29:08;29.70;51.50
11559;DHT22;5835;42.930;25.178;2022-07-17T10:31:52;30.00;52.40
11559;DHT22;5835;42.930;25.178;2022-07-17T10:34:37;29.60;50.70
11559;DHT22;5835;42.930;25.178;2022-07-17T10:37:18;30.50;50.40
11559;DHT22;5835;42.930;25.178;2022-07-17T10:40:01;30.80;49.30
11559;DHT22;5835;42.930;25.178;2022-07-17T10:42:52;30.40;50.50
11559;DHT22;5835;42.930;25.178;2022-07-17T10:45:25;30.40;51.20
11559;DHT22;5835;42.930;25.178;2022-07-17T10:47:56;29.70;50.30
11559;DHT22;5835;42.930;25.178;2022-07-17T10:50:27;30.50;51.40
11559;DHT22;5835;42.930;25.178;2022-07-17T10:53:03;29.40;49.50
11559;DHT22;5835;42.930;25.178;2022-07-17T10:55:32;30.40;50.40
11559;DHT22;5835;42.930;25.178;2022-07-17T10:58:02;29.90;49.30
11559;DHT22;5835;42.930;25.178;2022-07-17T11:00:30;29.70;49.10
11559;DHT22;5835;42.930;25.178;2022-07-17T11:03:08;30.10;51.40
11559;DHT22;5835;42.930;25.178;2022-07-17T11:05:36;29.80;50.70
11559;DHT22;5835;42.930;25.178;2022-07-17T11:08:04;29.80;50.50
11559;DHT22;5835;42.930;25.178;2022-07-17T11:10:36;30.20;52.10
11559;DHT22;5835;42.930;25.178;2022-07-17T11:13:10;29.80;51.00
11559;DHT22;5835;42.930;25.178;2022-07-17T11:15:42;30.30;53.00
11559;DHT22;5835;42.930;25.178;2022-07-17T11:18:12;29.80;49.60
11559;DHT22;5835;42.930;25.178;2022-07-17T11:20:48;29.70;51.30
11559;DHT22;5835;42.930;25.178;2022-07-17T11:23:16;30.10;50.30
11559;DHT22;5835;42.930;25.178;2022-07-17T11:25:58;30.20;50.60
11559;DHT22;5835;42.930;25.178;2022-07-17T11:28:35;30.80;51.00
11559;DHT22;5835;42.930;25.178;2022-07-17T11:31:14;30.40;51.20
11559;DHT22;5835;42.930;25.178;2022-07-17T11:33:47;30.20;51.00
11559;DHT22;5835;42.930;25.178;2022-07-17T11:36:20;30.30;50.40
11559;DHT22;5835;42.930;25.178;2022-07-17T11:38:48;30.30;51.20
11559;DHT22;5835;42.930;25.178;2022-07-17T11:41:17;29.90;50.90
11559;DHT22;5835;42.930;25.178;2022-07-17T11:43:46;30.00;51.00
11559;DHT22;5835;42.930;25.178;2022-07-17T11:46:15;30.70;51.30
11559;DHT22;5835;42.930;25.178;2022-07-17T11:48:44;30.80;51.00
11559;DHT22;5835;42.930;25.178;2022-07-17T11:51:11;30.20;51.20
11559;DHT22;5835;42.930;25.178;2022-07-17T11:53:39;30.50;50.20
11559;DHT22;5835;42.930;25.178;2022-07-17T11:56:08;30.70;49.10
11559;DHT22;5835;42.930;25.178;2022-07-17T11:58:44;30.80;50.00
11559;DHT22;5835;42.930;25.178;2022-07-17T12:01:14;30.70;48.30
11559;DHT22;5835;42.930;25.178;2022-07-17T12:03:42;30.60;48.30
11559;DHT22;5835;42.930;25.178;2022-07-17T12:06:09;31.10;51.30
11559;DHT22;5835;42.930;25.178;2022-07-17T12:08:37;31.60;49.30
11559;DHT22;5835;42.930;25.178;2022-07-17T12:33:14;30.90;49.50
11559;DHT22;5835;42.930;25.178;2022-07-17T12:35:41;31.30;50.40
11559;DHT22;5835;42.930;25.178;2022-07-17T12:38:09;30.90;50.50
11559;DHT22;5835;42.930;25.178;2022-07-17T12:40:37;30.60;50.30
11559;DHT22;5835;42.930;25.178;2022-07-17T12:43:04;29.90;51.10
11559;DHT22;5835;42.930;25.178;2022-07-17T12:45:32;29.60;51.80
11559;DHT22;5835;42.930;25.178;2022-07-17T12:48:00;30.30;52.60
11559;DHT22;5835;42.930;25.178;2022-07-17T12:50:29;31.20;51.50
11559;DHT22;5835;42.930;25.178;2022-07-17T12:52:57;30.50;50.90
11559;DHT22;5835;42.930;25.178;2022-07-17T12:55:24;30.20;51.80
11559;DHT22;5835;42.930;25.178;2022-07-17T12:57:52;30.00;52.20
11559;DHT22;5835;42.930;25.178;2022-07-17T13:00:20;30.00;52.50
11559;DHT22;5835;42.930;25.178;2022-07-17T13:02:49;29.50;53.10
11559;DHT22;5835;42.930;25.178;2022-07-17T13:05:16;29.30;53.70
11559;DHT22;5835;42.930;25.178;2022-07-17T13:07:46;29.30;53.90
11559;DHT22;5835;42.930;25.178;2022-07-17T13:10:13;29.40;54.50
11559;DHT22;5835;42.930;25.178;2022-07-17T13:12:41;29.20;54.50
11559;DHT22;5835;42.930;25.178;2022-07-17T13:15:10;29.10;55.00
11559;DHT22;5835;42.930;25.178;2022-07-17T13:17:38;29.00;54.80
11559;DHT22;5835;42.930;25.178;2022-07-17T13:20:07;29.70;55.00
11559;DHT22;5835;42.930;25.178;2022-07-17T13:22:36;29.60;54.50
11559;DHT22;5835;42.930;25.178;2022-07-17T13:25:06;29.20;54.30
11559;DHT22;5835;42.930;25.178;2022-07-17T13:27:34;29.10;54.90
11559;DHT22;5835;42.930;25.178;2022-07-17T13:30:02;29.10;55.20
11559;DHT22;5835;42.930;25.178;2022-07-17T13:32:30;28.90;55.30
11559;DHT22;5835;42.930;25.178;2022-07-17T13:34:58;29.60;54.80
11559;DHT22;5835;42.930;25.178;2022-07-17T13:37:26;30.00;54.10
11559;DHT22;5835;42.930;25.178;2022-07-17T13:39:53;30.70;54.60
11559;DHT22;5835;42.930;25.178;2022-07-17T13:42:23;30.70;53.90
11559;DHT22;5835;42.930;25.178;2022-07-17T13:44:51;31.10;54.20
11559;DHT22;5835;42.930;25.178;2022-07-17T13:47:18;31.10;54.70
11559;DHT22;5835;42.930;25.178;2022-07-17T13:49:46;31.20;54.30
11559;DHT22;5835;42.930;25.178;2022-07-17T13:52:14;30.40;55.10
11559;DHT22;5835;42.930;25.178;2022-07-17T13:54:41;30.20;55.60
11559;DHT22;5835;42.930;25.178;2022-07-17T13:57:09;30.10;56.30
11559;DHT22;5835;42.930;25.178;2022-07-17T13:59:39;30.00;56.40
11559;DHT22;5835;42.930;25.178;2022-07-17T14:02:08;29.60;57.00
11559;DHT22;5835;42.930;25.178;2022-07-17T14:04:36;29.40;56.40
11559;DHT22;5835;42.930;25.178;2022-07-17T14:07:04;29.90;56.20
11559;DHT22;5835;42.930;25.178;2022-07-17T14:09:32;29.90;56.30
11559;DHT22;5835;42.930;25.178;2022-07-17T14:12:00;29.60;56.20
11559;DHT22;5835;42.930;25.178;2022-07-17T14:14:27;29.20;56.80
11559;DHT22;5835;42.930;25.178;2022-07-17T14:16:57;29.10;57.00
11559;DHT22;5835;42.930;25.178;2022-07-17T14:19:25;29.30;57.30
11559;DHT22;5835;42.930;25.178;2022-07-17T14:21:53;30.20;55.20
11559;DHT22;5835;42.930;25.178;2022-07-17T14:24:21;30.30;53.50
11559;DHT22;5835;42.930;25.178;2022-07-17T14:26:49;29.90;53.30
11559;DHT22;5835;42.930;25.178;2022-07-17T14:29:16;29.90;54.40
11559;DHT22;5835;42.930;25.178;2022-07-17T14:31:44;30.00;54.50
11559;DHT22;5835;42.930;25.178;2022-07-17T14:34:13;30.10;54.00
11559;DHT22;5835;42.930;25.178;2022-07-17T14:36:43;30.20;53.20
11559;DHT22;5835;42.930;25.178;2022-07-17T14:39:10;29.90;51.80
11559;DHT22;5835;42.930;25.178;2022-07-17T14:41:39;29.50;52.70
11559;DHT22;5835;42.930;25.178;2022-07-17T14:44:06;29.90;51.40
11559;DHT22;5835;42.930;25.178;2022-07-17T14:46:34;30.10;49.60
11559;DHT22;5835;42.930;25.178;2022-07-17T14:49:02;30.20;49.80
11559;DHT22;5835;42.930;25.178;2022-07-17T14:51:32;30.00;48.70
11559;DHT22;5835;42.930;25.178;2022-07-17T14:54:00;30.10;49.10
11559;DHT22;5835;42.930;25.178;2022-07-17T14:56:27;30.70;49.90
11559;DHT22;5835;42.930;25.178;2022-07-17T14:58:55;30.70;50.00
11559;DHT22;5835;42.930;25.178;2022-07-17T15:01:23;30.50;49.20
11559;DHT22;5835;42.930;25.178;2022-07-17T15:03:51;30.50;49.20
11559;DHT22;5835;42.930;25.178;2022-07-17T15:06:18;30.50;49.00
11559;DHT22;5835;42.930;25.178;2022-07-17T15:08:48;30.40;49.70
11559;DHT22;5835;42.930;25.178;2022-07-17T15:11:16;30.00;50.50
11559;DHT22;5835;42.930;25.178;2022-07-17T15:13:43;30.00;50.50
11559;DHT22;5835;42.930;25.178;2022-07-17T15:16:11;30.60;49.80
11559;DHT22;5835;42.930;25.178;2022-07-17T15:18:38;30.00;49.10
11559;DHT22;5835;42.930;25.178;2022-07-17T15:21:07;29.80;49.60
11559;DHT22;5835;42.930;25.178;2022-07-17T15:23:35;29.90;49.60
11559;DHT22;5835;42.930;25.178;2022-07-17T15:26:05;30.10;50.00
11559;DHT22;5835;42.930;25.178;2022-07-17T15:28:32;29.90;49.40
11559;DHT22;5835;42.930;25.178;2022-07-17T15:31:00;30.50;50.00
11559;DHT22;5835;42.930;25.178;2022-07-17T15:33:27;30.30;49.40
11559;DHT22;5835;42.930;25.178;2022-07-17T15:35:55;30.50;47.90
11559;DHT22;5835;42.930;25.178;2022-07-17T15:38:25;30.30;47.60
11559;DHT22;5835;42.930;25.178;2022-07-17T15:40:52;30.50;47.50
11559;DHT22;5835;42.930;25.178;2022-07-17T15:43:30;30.20;47.80
11559;DHT22;5835;42.930;25.178;2022-07-17T15:46:04;29.90;47.00
11559;DHT22;5835;42.930;25.178;2022-07-17T15:48:33;30.40;47.30
11559;DHT22;5835;42.930;25.178;2022-07-17T15:51:00;29.90;47.80
11559;DHT22;5835;42.930;25.178;2022-07-17T15:53:28;30.30;48.00
11559;DHT22;5835;42.930;25.178;2022-07-17T15:55:55;30.50;47.80
11559;DHT22;5835;42.930;25.178;2022-07-17T15:58:24;30.50;48.10
11559;DHT22;5835;42.930;25.178;2022-07-17T16:00:52;30.40;48.50
11559;DHT22;5835;42.930;25.178;2022-07-17T16:03:20;30.30;48.50